createdAt,value
2018-12-05T00:01:27.790Z,82.81
2018-12-05T00:04:13.586Z,82.96
2018-12-05T00:06:59.869Z,83.13
2018-12-05T00:09:29.069Z,82.78
2018-12-05T00:11:58.146Z,83.59
2018-12-05T00:14:27.237Z,83.55
2018-12-05T00:16:56.443Z,83.70
2018-12-05T00:19:25.498Z,83.79
2018-12-05T00:21:54.552Z,83.87
2018-12-05T00:24:23.648Z,84.32
2018-12-05T00:26:52.740Z,83.98
2018-12-05T00:29:21.970Z,83.96
2018-12-05T00:31:51.040Z,84.11
2018-12-05T00:34:20.463Z,84.19
2018-12-05T00:36:49.577Z,84.10
2018-12-05T00:39:18.631Z,84.15
2018-12-05T00:41:47.738Z,83.94
2018-12-05T00:44:18.249Z,84.09
2018-12-05T00:46:47.382Z,84.20
2018-12-05T00:49:16.449Z,84.04
2018-12-05T00:51:45.552Z,84.13
2018-12-05T00:54:14.642Z,84.33
2018-12-05T00:56:43.965Z,84.24
2018-12-05T00:59:13.082Z,84.22
2018-12-05T01:01:42.153Z,84.27
2018-12-05T01:04:11.202Z,84.14
2018-12-05T01:06:40.393Z,84.33
2018-12-05T01:09:13.103Z,84.39
2018-12-05T01:11:42.681Z,84.37
2018-12-05T01:14:12.163Z,84.32
2018-12-05T01:16:41.293Z,84.22
2018-12-05T01:19:10.686Z,84.38
2018-12-05T01:21:39.872Z,84.55
2018-12-05T01:24:08.932Z,84.47
2018-12-05T01:26:38.079Z,84.32
2018-12-05T01:29:07.135Z,84.55
2018-12-05T01:31:36.185Z,84.44
2018-12-05T01:34:05.284Z,84.48
2018-12-05T01:36:34.562Z,84.71
2018-12-05T01:39:05.158Z,84.74
2018-12-05T01:41:34.263Z,84.80
2018-12-05T01:44:03.356Z,84.74
2018-12-05T01:46:32.449Z,84.63
2018-12-05T01:49:01.516Z,84.68
2018-12-05T01:51:30.561Z,84.76
2018-12-05T01:53:59.636Z,85.03
2018-12-05T01:56:28.816Z,84.97
2018-12-05T01:58:57.864Z,84.96
2018-12-05T02:01:26.903Z,85.28
2018-12-05T02:03:55.975Z,85.35
2018-12-05T02:06:25.035Z,85.23
2018-12-05T02:08:54.153Z,85.32
2018-12-05T02:11:24.135Z,85.37
2018-12-05T02:13:54.258Z,85.26
2018-12-05T02:16:23.382Z,85.44
2018-12-05T02:18:52.548Z,85.38
2018-12-05T02:21:21.669Z,85.44
2018-12-05T02:23:50.756Z,85.42
2018-12-05T02:26:19.938Z,85.47
2018-12-05T02:28:49.038Z,85.46
2018-12-05T02:31:18.134Z,85.73
2018-12-05T02:33:47.252Z,85.80
2018-12-05T02:36:16.323Z,85.72
2018-12-05T02:38:45.540Z,85.49
2018-12-05T02:41:14.734Z,85.64
2018-12-05T02:43:43.880Z,85.41
2018-12-05T02:46:13.070Z,85.71
2018-12-05T02:48:42.151Z,85.81
2018-12-05T02:51:11.296Z,86.05
2018-12-05T02:53:40.397Z,85.89
2018-12-05T02:56:09.599Z,86.12
2018-12-05T02:58:38.692Z,86.09
2018-12-05T03:01:07.791Z,86.14
2018-12-05T03:03:36.898Z,86.23
2018-12-05T03:06:06.065Z,86.24
2018-12-05T03:08:35.185Z,86.21
2018-12-05T03:11:04.355Z,86.17
2018-12-05T03:13:33.564Z,86.20
2018-12-05T03:16:05.681Z,86.20
2018-12-05T03:18:34.794Z,86.28
2018-12-05T03:21:03.884Z,86.43
2018-12-05T03:23:32.913Z,86.34
2018-12-05T03:26:02.118Z,86.37
2018-12-05T03:28:31.220Z,86.33
2018-12-05T03:31:01.103Z,86.37
2018-12-05T03:33:30.175Z,86.44
2018-12-05T03:35:59.208Z,86.49
2018-12-05T03:38:28.307Z,86.33
2018-12-05T03:40:57.416Z,86.54
2018-12-05T03:43:26.600Z,86.42
2018-12-05T03:45:55.675Z,86.48
2018-12-05T03:48:24.806Z,86.45
2018-12-05T03:50:53.865Z,86.51
2018-12-05T03:53:23.458Z,86.20
2018-12-05T03:55:52.501Z,86.36
2018-12-05T03:58:21.666Z,86.45
2018-12-05T04:00:50.819Z,86.53
2018-12-05T04:03:19.953Z,86.42
2018-12-05T04:05:49.008Z,86.35
2018-12-05T04:08:18.051Z,86.44
2018-12-05T04:10:47.198Z,86.45
2018-12-05T04:13:16.890Z,86.35
2018-12-05T04:15:46.913Z,86.18
2018-12-05T04:18:16.168Z,86.49
2018-12-05T04:20:45.281Z,86.20
2018-12-05T04:23:14.297Z,86.34
2018-12-05T04:25:43.444Z,86.41
2018-12-05T04:28:12.489Z,86.45
2018-12-05T04:30:41.542Z,86.38
2018-12-05T04:33:10.845Z,86.38
2018-12-05T04:35:39.955Z,86.43
2018-12-05T04:38:09.048Z,86.41
2018-12-05T04:40:38.146Z,86.21
2018-12-05T04:43:07.251Z,86.38
2018-12-05T04:45:36.386Z,86.37
2018-12-05T04:48:05.465Z,86.34
2018-12-05T04:50:34.573Z,86.22
2018-12-05T04:53:03.753Z,86.10
2018-12-05T04:55:32.940Z,86.29
2018-12-05T04:58:02.065Z,86.16
2018-12-05T05:00:31.146Z,86.15
2018-12-05T05:03:00.234Z,86.29
2018-12-05T05:05:29.271Z,86.13
2018-12-05T05:07:58.812Z,86.49
2018-12-05T05:10:27.918Z,86.03
2018-12-05T05:12:57.232Z,86.20
2018-12-05T05:15:26.304Z,85.85
2018-12-05T05:17:55.421Z,86.09
2018-12-05T05:20:24.644Z,86.33
2018-12-05T05:22:53.749Z,86.27
2018-12-05T05:25:23.017Z,86.29
2018-12-05T05:27:52.207Z,86.26
2018-12-05T05:30:22.308Z,86.04
2018-12-05T05:32:53.394Z,86.08
2018-12-05T05:35:23.428Z,86.11
2018-12-05T05:37:52.469Z,86.00
2018-12-05T05:40:21.504Z,86.12
2018-12-05T05:42:50.585Z,86.06
2018-12-05T05:45:19.843Z,86.14
2018-12-05T05:47:48.966Z,86.16
2018-12-05T05:50:18.065Z,85.86
2018-12-05T05:52:47.174Z,86.02
2018-12-05T05:55:16.265Z,86.06
2018-12-05T05:57:46.215Z,85.90
2018-12-05T06:00:15.388Z,85.88
2018-12-05T06:02:44.602Z,86.41
2018-12-05T06:05:13.674Z,86.17
2018-12-05T06:07:42.820Z,85.94
2018-12-05T06:10:12.040Z,86.02
2018-12-05T06:12:41.153Z,85.86
2018-12-05T06:15:10.284Z,86.04
2018-12-05T06:17:39.366Z,85.96
2018-12-05T06:20:08.459Z,85.80
2018-12-05T06:22:37.605Z,85.83
2018-12-05T06:25:07.190Z,85.82
2018-12-05T06:27:36.283Z,85.90
2018-12-05T06:30:06.070Z,85.81
2018-12-05T06:32:35.321Z,85.67
2018-12-05T06:35:04.622Z,85.73
2018-12-05T06:37:33.772Z,85.88
2018-12-05T06:40:02.913Z,85.72
2018-12-05T06:42:32.479Z,85.70
2018-12-05T06:45:02.461Z,85.62
2018-12-05T06:47:31.645Z,85.60
2018-12-05T06:50:01.373Z,85.40
2018-12-05T06:52:30.564Z,85.67
2018-12-05T06:54:59.632Z,85.46
2018-12-05T06:57:28.690Z,85.61
2018-12-05T06:59:57.917Z,85.10
2018-12-05T07:02:27.943Z,85.57
2018-12-05T07:04:57.101Z,85.26
2018-12-05T07:07:26.326Z,85.44
2018-12-05T07:09:55.626Z,85.24
2018-12-05T07:12:24.741Z,85.14
2018-12-05T07:14:53.951Z,85.25
2018-12-05T07:17:23.085Z,85.25
2018-12-05T07:19:52.377Z,85.13
2018-12-05T07:22:21.462Z,84.84
2018-12-05T07:24:50.559Z,85.12
2018-12-05T07:27:19.768Z,84.84
2018-12-05T07:29:48.821Z,84.94
2018-12-05T07:32:17.990Z,84.61
2018-12-05T07:34:47.257Z,84.70
2018-12-05T07:37:17.500Z,84.75
2018-12-05T07:39:46.577Z,84.67
2018-12-05T07:42:15.785Z,84.76
2018-12-05T07:44:45.008Z,84.32
2018-12-05T07:47:14.463Z,84.49
2018-12-05T07:49:43.666Z,84.55
2018-12-05T07:52:12.884Z,84.69
2018-12-05T07:54:42.039Z,84.93
2018-12-05T07:57:11.185Z,84.64
2018-12-05T07:59:40.360Z,84.69
2018-12-05T08:02:09.572Z,84.56
2018-12-05T08:04:38.841Z,84.78
2018-12-05T08:07:08.141Z,84.55
2018-12-05T08:09:38.466Z,84.55
2018-12-05T08:12:08.900Z,84.50
2018-12-05T08:14:38.763Z,84.71
2018-12-05T08:17:07.891Z,84.63
2018-12-05T08:19:37.033Z,84.72
2018-12-05T08:22:06.300Z,84.80
2018-12-05T08:24:35.678Z,84.68
2018-12-05T08:27:04.797Z,84.82
2018-12-05T08:29:33.999Z,84.88
2018-12-05T08:32:03.126Z,84.65
2018-12-05T08:34:32.613Z,84.76
2018-12-05T08:37:02.704Z,84.82
2018-12-05T08:39:31.865Z,84.61
2018-12-05T08:42:01.111Z,84.70
2018-12-05T08:44:30.596Z,84.66
2018-12-05T08:46:59.750Z,84.60
2018-12-05T08:49:28.926Z,84.63
2018-12-05T08:51:58.015Z,84.60
2018-12-05T08:54:27.079Z,84.68
2018-12-05T08:56:56.196Z,84.57
2018-12-05T08:59:26.131Z,84.60
2018-12-05T09:01:55.399Z,84.46
2018-12-05T09:04:25.543Z,84.32
2018-12-05T09:06:54.877Z,84.28
2018-12-05T09:09:24.573Z,84.40
2018-12-05T09:11:53.738Z,84.15
2018-12-05T09:14:28.743Z,84.52
2018-12-05T09:16:52.175Z,84.28
2018-12-05T09:19:21.641Z,84.32
2018-12-05T09:21:50.833Z,84.30
2018-12-05T09:24:20.111Z,84.10
2018-12-05T09:26:49.247Z,83.96
2018-12-05T09:29:18.524Z,84.21
2018-12-05T09:31:48.593Z,84.08
2018-12-05T09:34:17.832Z,84.29
2018-12-05T09:36:47.053Z,84.10
2018-12-05T09:39:16.407Z,84.17
2018-12-05T09:41:45.669Z,84.25
2018-12-05T09:44:14.842Z,84.35
2018-12-05T09:46:44.160Z,84.14
2018-12-05T09:49:13.354Z,83.94
2018-12-05T09:51:42.537Z,83.97
2018-12-05T09:54:12.279Z,84.23
2018-12-05T09:56:41.508Z,84.08
2018-12-05T09:59:10.639Z,84.27
2018-12-05T10:01:39.757Z,84.24
2018-12-05T10:04:09.001Z,84.08
2018-12-05T10:06:38.115Z,84.23
2018-12-05T10:09:08.970Z,84.04
2018-12-05T10:11:38.957Z,83.82
2018-12-05T10:14:08.556Z,84.32
2018-12-05T10:16:39.444Z,83.97
2018-12-05T10:19:08.754Z,84.31
2018-12-05T10:21:38.047Z,84.46
2018-12-05T10:24:07.318Z,84.26
2018-12-05T10:26:37.498Z,84.56
2018-12-05T10:29:06.944Z,84.63
2018-12-05T10:31:36.196Z,84.43
2018-12-05T10:34:05.463Z,84.28
2018-12-05T10:36:35.654Z,84.78
2018-12-05T10:39:06.034Z,84.61
2018-12-05T10:41:35.237Z,84.59
2018-12-05T10:44:05.149Z,84.82
2018-12-05T10:46:34.319Z,84.66
2018-12-05T10:49:04.420Z,84.71
2018-12-05T10:51:34.787Z,84.82
2018-12-05T10:54:03.954Z,85.14
2018-12-05T10:56:33.138Z,84.89
2018-12-05T10:59:02.259Z,84.91
2018-12-05T11:01:36.453Z,84.79
2018-12-05T11:06:12.201Z,84.96
2018-12-05T11:08:46.749Z,85.19
2018-12-05T11:11:21.116Z,85.22
2018-12-05T11:13:55.341Z,85.50
2018-12-05T11:16:29.621Z,85.50
2018-12-05T11:19:04.194Z,85.37
2018-12-05T11:21:38.662Z,85.31
2018-12-05T11:24:13.389Z,85.25
2018-12-05T11:26:42.578Z,85.72
2018-12-05T11:29:11.781Z,85.41
2018-12-05T11:31:41.363Z,85.69
2018-12-05T11:34:10.546Z,85.69
2018-12-05T11:36:39.709Z,85.93
2018-12-05T11:39:10.214Z,86.04
2018-12-05T11:41:39.256Z,85.79
2018-12-05T11:44:08.320Z,86.13
2018-12-05T11:46:37.603Z,85.95
2018-12-05T11:49:06.864Z,86.19
2018-12-05T11:51:36.781Z,85.96
2018-12-05T11:54:08.106Z,86.19
2018-12-05T11:56:39.503Z,86.08
2018-12-05T11:59:08.947Z,86.05
2018-12-05T12:01:38.338Z,86.22
2018-12-05T12:04:07.630Z,86.42
2018-12-05T12:06:36.842Z,86.39
2018-12-05T12:09:09.588Z,86.16
2018-12-05T12:11:38.861Z,85.99
2018-12-05T12:14:07.942Z,86.23
2018-12-05T12:16:37.190Z,86.15
2018-12-05T12:19:06.332Z,86.42
2018-12-05T12:21:35.580Z,86.38
2018-12-05T12:24:04.765Z,86.52
2018-12-05T12:26:35.265Z,86.44
2018-12-05T12:29:04.639Z,86.71
2018-12-05T12:31:34.786Z,86.59
2018-12-05T12:34:04.216Z,86.52
2018-12-05T12:36:33.352Z,86.70
2018-12-05T12:39:02.666Z,86.93
2018-12-05T12:41:31.953Z,86.72
2018-12-05T12:44:01.256Z,86.71
2018-12-05T12:46:30.464Z,86.63
2018-12-05T12:48:59.856Z,86.51
2018-12-05T12:51:29.045Z,86.84
2018-12-05T12:53:58.270Z,86.53
2018-12-05T12:56:27.545Z,86.66
2018-12-05T12:58:56.908Z,86.61
2018-12-05T13:01:30.178Z,86.42
2018-12-05T13:04:00.228Z,86.45
2018-12-05T13:06:29.556Z,86.73
2018-12-05T13:08:58.855Z,86.31
2018-12-05T13:11:28.191Z,86.44
2018-12-05T13:13:57.459Z,86.42
2018-12-05T13:16:26.653Z,86.28
2018-12-05T13:18:56.010Z,86.34
2018-12-05T13:21:25.405Z,86.52
2018-12-05T13:23:54.732Z,86.46
2018-12-05T13:26:24.402Z,86.21
2018-12-05T13:28:54.022Z,86.45
2018-12-05T13:31:24.356Z,86.25
2018-12-05T13:33:54.555Z,85.97
2018-12-05T13:36:23.915Z,86.12
2018-12-05T13:38:53.076Z,86.07
2018-12-05T13:41:22.323Z,86.23
2018-12-05T13:43:51.733Z,86.21
2018-12-05T13:46:21.020Z,86.07
2018-12-05T13:48:50.321Z,86.12
2018-12-05T13:51:19.563Z,86.13
2018-12-05T13:53:48.652Z,86.15
2018-12-05T13:56:17.859Z,86.23
2018-12-05T13:58:47.243Z,86.21
2018-12-05T14:01:16.717Z,85.91
2018-12-05T14:03:46.128Z,86.05
2018-12-05T14:06:15.444Z,86.09
2018-12-05T14:08:44.657Z,86.04
2018-12-05T14:11:13.983Z,86.14
2018-12-05T14:13:43.470Z,85.97
2018-12-05T14:16:13.070Z,86.15
2018-12-05T14:18:42.548Z,86.05
2018-12-05T14:21:11.915Z,86.11
2018-12-05T14:23:41.591Z,86.02
2018-12-05T14:26:10.859Z,86.03
2018-12-05T14:28:40.106Z,86.18
2018-12-05T14:31:09.466Z,86.19
2018-12-05T14:33:38.861Z,86.24
2018-12-05T14:36:09.277Z,86.17
2018-12-05T14:38:38.456Z,86.09
2018-12-05T14:41:11.604Z,86.02
2018-12-05T14:43:40.946Z,86.02
2018-12-05T14:46:10.326Z,85.97
2018-12-05T14:48:39.592Z,85.94
2018-12-05T14:51:08.706Z,85.83
2018-12-05T14:53:37.884Z,86.07
2018-12-05T14:56:07.897Z,85.85
2018-12-05T14:58:37.314Z,85.61
2018-12-05T15:01:07.161Z,85.78
2018-12-05T15:03:36.340Z,85.50
2018-12-05T15:06:06.560Z,85.57
2018-12-05T15:08:35.827Z,85.62
2018-12-05T15:11:05.049Z,85.44
2018-12-05T15:13:34.524Z,85.46
2018-12-05T15:16:04.737Z,85.56
2018-12-05T15:18:33.982Z,85.46
2018-12-05T15:21:03.341Z,85.40
2018-12-05T15:23:33.658Z,85.18
2018-12-05T15:26:03.022Z,85.53
2018-12-05T15:28:32.541Z,85.72
2018-12-05T15:31:01.809Z,85.47
2018-12-05T15:33:31.093Z,85.72
2018-12-05T15:36:03.903Z,85.50
2018-12-05T15:38:33.724Z,85.71
2018-12-05T15:41:02.845Z,85.62
2018-12-05T15:43:32.195Z,85.57
2018-12-05T15:46:01.578Z,85.90
2018-12-05T15:48:31.561Z,85.83
2018-12-05T15:51:00.877Z,85.73
2018-12-05T15:53:30.280Z,85.80
2018-12-05T15:55:59.773Z,85.71
2018-12-05T15:58:29.936Z,85.82
2018-12-05T16:00:59.494Z,85.83
2018-12-05T16:03:28.692Z,85.58
2018-12-05T16:05:58.284Z,85.54
2018-12-05T16:08:27.480Z,85.63
2018-12-05T16:10:56.875Z,85.66
2018-12-05T16:13:26.271Z,85.79
2018-12-05T16:15:55.490Z,85.51
2018-12-05T16:18:24.843Z,85.46
2018-12-05T16:20:54.363Z,85.67
2018-12-05T16:23:23.688Z,85.49
2018-12-05T16:25:52.826Z,85.80
2018-12-05T16:28:22.403Z,85.79
2018-12-05T16:30:51.629Z,85.48
2018-12-05T16:33:21.517Z,85.76
2018-12-05T16:35:50.727Z,85.56
2018-12-05T16:38:20.249Z,85.69
2018-12-05T16:40:49.468Z,85.38
2018-12-05T16:43:18.714Z,85.46
2018-12-05T16:45:47.833Z,85.62
2018-12-05T16:48:17.027Z,85.61
2018-12-05T16:50:46.338Z,85.75
2018-12-05T16:53:15.656Z,85.34
2018-12-05T16:55:44.770Z,85.64
2018-12-05T16:58:14.031Z,85.94
2018-12-05T17:00:43.247Z,85.58
2018-12-05T17:03:12.482Z,85.96
2018-12-05T17:05:42.349Z,85.56
2018-12-05T17:08:11.638Z,85.85
2018-12-05T17:10:41.012Z,85.67
2018-12-05T17:13:10.403Z,85.54
2018-12-05T17:15:47.806Z,85.73
2018-12-05T17:18:17.057Z,85.84
2018-12-05T17:20:46.613Z,85.80
2018-12-05T17:23:16.094Z,85.68
2018-12-05T17:25:45.443Z,85.78
2018-12-05T17:28:19.725Z,85.88
2018-12-05T17:30:50.038Z,85.74
2018-12-05T17:33:20.640Z,85.79
2018-12-05T17:35:58.886Z,85.77
2018-12-05T17:38:28.452Z,85.71
2018-12-05T17:40:57.567Z,85.73
2018-12-05T17:43:27.505Z,85.77
2018-12-05T17:45:56.768Z,85.74
2018-12-05T17:48:25.860Z,85.83
2018-12-05T17:50:55.023Z,85.64
2018-12-05T17:53:24.171Z,85.67
2018-12-05T17:55:53.265Z,85.52
2018-12-05T17:58:22.390Z,85.73
2018-12-05T18:00:52.455Z,85.93
2018-12-05T18:03:21.695Z,85.87
2018-12-05T18:05:50.866Z,85.60
2018-12-05T18:08:19.965Z,85.65
2018-12-05T18:10:49.057Z,85.84
2018-12-05T18:13:18.257Z,85.86
2018-12-05T18:15:47.556Z,85.98
2018-12-05T18:18:16.827Z,85.85
2018-12-05T18:20:48.329Z,85.84
2018-12-05T18:23:17.447Z,85.88
2018-12-05T18:25:47.135Z,85.74
2018-12-05T18:28:16.325Z,86.05
2018-12-05T18:30:45.393Z,85.92
2018-12-05T18:33:14.809Z,85.84
2018-12-05T18:35:43.845Z,85.98
2018-12-05T18:38:12.991Z,86.13
2018-12-05T18:40:42.117Z,86.28
2018-12-05T18:43:11.235Z,86.05
2018-12-05T18:45:40.306Z,86.23
2018-12-05T18:48:09.437Z,86.12
2018-12-05T18:50:38.669Z,86.02
2018-12-05T18:53:07.775Z,86.07
2018-12-05T18:55:36.961Z,86.39
2018-12-05T18:58:06.074Z,86.28
2018-12-05T19:00:36.092Z,86.50
2018-12-05T19:03:05.362Z,86.15
2018-12-05T19:05:34.411Z,86.10
2018-12-05T19:08:03.497Z,86.14
2018-12-05T19:10:33.324Z,86.21
2018-12-05T19:13:02.880Z,86.46
2018-12-05T19:15:32.135Z,86.43
2018-12-05T19:18:01.457Z,86.35
2018-12-05T19:20:30.690Z,86.38
2018-12-05T19:22:59.779Z,86.15
2018-12-05T19:25:29.048Z,86.38
2018-12-05T19:27:59.109Z,86.54
2018-12-05T19:30:28.292Z,86.31
2018-12-05T19:32:58.576Z,86.19
2018-12-05T19:35:27.764Z,86.53
2018-12-05T19:37:56.916Z,86.36
2018-12-05T19:40:30.060Z,86.27
2018-12-05T19:43:00.545Z,86.40
2018-12-05T19:45:29.692Z,86.59
2018-12-05T19:47:58.860Z,86.32
2018-12-05T19:50:28.033Z,86.39
2018-12-05T19:52:57.297Z,86.44
2018-12-05T19:55:26.542Z,86.45
2018-12-05T19:57:58.082Z,86.46
2018-12-05T20:00:27.158Z,86.55
2018-12-05T20:02:56.225Z,86.53
2018-12-05T20:05:25.345Z,86.31
2018-12-05T20:07:54.509Z,86.24
2018-12-05T20:10:23.624Z,86.40
2018-12-05T20:15:31.482Z,86.65
2018-12-05T20:18:05.068Z,86.49
2018-12-05T20:20:34.387Z,86.45
2018-12-05T20:23:03.850Z,86.34
2018-12-05T20:25:33.087Z,86.51
2018-12-05T20:28:02.390Z,86.60
2018-12-05T20:33:17.276Z,86.55
2018-12-05T20:35:46.438Z,86.58
2018-12-05T20:38:15.551Z,86.51
2018-12-05T20:40:44.673Z,86.59
2018-12-05T20:43:14.160Z,86.62
2018-12-05T20:45:43.315Z,86.66
2018-12-05T20:48:12.966Z,86.78
2018-12-05T20:50:42.159Z,86.64
2018-12-05T20:53:11.610Z,86.79
2018-12-05T20:55:41.780Z,86.57
2018-12-05T20:58:10.907Z,86.72
2018-12-05T21:00:40.824Z,86.81
2018-12-05T21:03:11.795Z,86.72
2018-12-05T21:05:41.731Z,86.76
2018-12-05T21:08:10.805Z,86.72
2018-12-05T21:10:41.139Z,86.87
2018-12-05T21:13:13.939Z,86.83
2018-12-05T21:15:43.054Z,86.83
2018-12-05T21:18:12.160Z,86.87
2018-12-05T21:20:41.733Z,86.60
2018-12-05T21:23:10.866Z,86.79
2018-12-05T21:25:39.960Z,86.85
2018-12-05T21:28:09.359Z,86.85
2018-12-05T21:30:38.862Z,86.83
2018-12-05T21:33:07.991Z,86.82
2018-12-05T21:35:37.065Z,86.85
2018-12-05T21:38:06.814Z,86.70
2018-12-05T21:40:36.172Z,86.80
2018-12-05T21:43:05.682Z,86.95
2018-12-05T21:45:38.153Z,86.91
2018-12-05T21:48:08.479Z,87.17
2018-12-05T21:50:37.577Z,87.06
2018-12-05T21:53:10.150Z,87.18
2018-12-05T21:55:39.257Z,87.03
2018-12-05T21:58:08.326Z,87.02
2018-12-05T22:00:38.526Z,87.03
2018-12-05T22:03:07.561Z,87.04
2018-12-05T22:05:36.844Z,86.88
2018-12-05T22:08:06.117Z,87.05
2018-12-05T22:10:35.182Z,87.07
2018-12-05T22:13:05.664Z,87.02
2018-12-05T22:15:35.539Z,87.02
2018-12-05T22:18:04.976Z,87.11
2018-12-05T22:20:34.191Z,87.07
2018-12-05T22:23:03.711Z,87.22
2018-12-05T22:25:32.799Z,87.32
2018-12-05T22:28:02.855Z,87.14
2018-12-05T22:30:32.080Z,87.03
2018-12-05T22:33:01.288Z,87.20
2018-12-05T22:35:30.353Z,87.38
2018-12-05T22:37:59.422Z,87.19
2018-12-05T22:40:28.519Z,87.18
2018-12-05T22:42:57.707Z,87.11
2018-12-05T22:45:27.119Z,87.21
2018-12-05T22:47:56.183Z,87.10
2018-12-05T22:50:25.274Z,87.09
2018-12-05T22:52:54.364Z,86.99
2018-12-05T22:55:23.600Z,87.13
2018-12-05T22:57:52.972Z,87.12
2018-12-05T23:00:24.605Z,87.08
2018-12-05T23:02:53.824Z,87.09
2018-12-05T23:05:23.281Z,87.14
2018-12-05T23:07:52.930Z,87.14
2018-12-05T23:10:22.096Z,87.27
2018-12-05T23:12:51.169Z,87.08
2018-12-05T23:15:20.520Z,87.03
2018-12-05T23:18:10.282Z,86.98
2018-12-05T23:20:39.733Z,87.09
2018-12-05T23:23:24.685Z,87.07
2018-12-05T23:26:12.595Z,87.03
2018-12-05T23:28:41.968Z,87.04
2018-12-05T23:31:31.545Z,87.08
2018-12-05T23:34:17.436Z,87.14
2018-12-05T23:37:04.117Z,87.00
2018-12-05T23:39:51.926Z,86.79
2018-12-05T23:42:37.459Z,86.91
2018-12-05T23:45:21.254Z,86.89
2018-12-05T23:48:06.559Z,86.90
2018-12-05T23:50:55.410Z,86.92
2018-12-05T23:53:45.404Z,86.87
2018-12-05T23:56:31.621Z,86.81
2018-12-05T23:59:01.490Z,87.04
